sensor_id;sensor_type;location;lat;lon;timestamp;P1;durP1;ratioP1;P2;durP2;ratioP2
81154;SDS011;70631;50.436;7.826;2023-06-24T00:00:34;5.50;;;4.40;;
81154;SDS011;70631;50.436;7.826;2023-06-24T00:02:59;5.27;;;4.63;;
81154;SDS011;70631;50.436;7.826;2023-06-24T00:05:27;5.18;;;4.50;;
81154;SDS011;70631;50.436;7.826;2023-06-24T00:07:52;7.73;;;5.33;;
81154;SDS011;70631;50.436;7.826;2023-06-24T00:10:17;5.68;;;4.88;;
81154;SDS011;70631;50.436;7.826;2023-06-24T00:12:43;8.83;;;5.50;;
81154;SDS011;70631;50.436;7.826;2023-06-24T00:15:09;7.00;;;4.90;;
81154;SDS011;70631;50.436;7.826;2023-06-24T00:17:35;6.18;;;4.53;;
81154;SDS011;70631;50.436;7.826;2023-06-24T00:20:00;8.30;;;4.68;;
81154;SDS011;70631;50.436;7.826;2023-06-24T00:22:29;5.22;;;4.65;;
81154;SDS011;70631;50.436;7.826;2023-06-24T00:24:54;6.13;;;4.63;;
81154;SDS011;70631;50.436;7.826;2023-06-24T00:27:19;5.57;;;4.63;;
81154;SDS011;70631;50.436;7.826;2023-06-24T00:29:45;5.80;;;4.80;;
81154;SDS011;70631;50.436;7.826;2023-06-24T00:32:10;6.67;;;5.00;;
81154;SDS011;70631;50.436;7.826;2023-06-24T00:34:35;10.13;;;5.30;;
81154;SDS011;70631;50.436;7.826;2023-06-24T00:37:01;6.90;;;4.80;;
81154;SDS011;70631;50.436;7.826;2023-06-24T00:39:28;6.10;;;4.97;;
81154;SDS011;70631;50.436;7.826;2023-06-24T00:41:53;6.13;;;5.23;;
81154;SDS011;70631;50.436;7.826;2023-06-24T00:44:18;6.20;;;4.73;;
81154;SDS011;70631;50.436;7.826;2023-06-24T00:46:44;6.43;;;5.18;;
81154;SDS011;70631;50.436;7.826;2023-06-24T00:49:10;5.72;;;4.78;;
81154;SDS011;70631;50.436;7.826;2023-06-24T00:51:40;6.38;;;5.28;;
81154;SDS011;70631;50.436;7.826;2023-06-24T00:54:15;5.95;;;5.00;;
81154;SDS011;70631;50.436;7.826;2023-06-24T00:56:41;5.63;;;5.00;;
81154;SDS011;70631;50.436;7.826;2023-06-24T00:59:07;6.38;;;4.70;;
81154;SDS011;70631;50.436;7.826;2023-06-24T01:01:36;5.90;;;4.82;;
81154;SDS011;70631;50.436;7.826;2023-06-24T01:04:02;5.88;;;5.22;;
81154;SDS011;70631;50.436;7.826;2023-06-24T01:06:28;6.40;;;5.18;;
81154;SDS011;70631;50.436;7.826;2023-06-24T01:08:57;5.75;;;5.15;;
81154;SDS011;70631;50.436;7.826;2023-06-24T01:11:25;6.30;;;5.13;;
81154;SDS011;70631;50.436;7.826;2023-06-24T01:13:51;11.10;;;5.25;;
81154;SDS011;70631;50.436;7.826;2023-06-24T01:16:23;7.00;;;5.23;;
81154;SDS011;70631;50.436;7.826;2023-06-24T01:19:00;8.77;;;5.00;;
81154;SDS011;70631;50.436;7.826;2023-06-24T01:25:00;6.18;;;5.43;;
81154;SDS011;70631;50.436;7.826;2023-06-24T01:27:45;6.65;;;5.68;;
81154;SDS011;70631;50.436;7.826;2023-06-24T01:30:22;7.07;;;5.15;;
81154;SDS011;70631;50.436;7.826;2023-06-24T01:33:07;8.88;;;5.70;;
81154;SDS011;70631;50.436;7.826;2023-06-24T01:35:35;9.20;;;5.95;;
81154;SDS011;70631;50.436;7.826;2023-06-24T01:38:03;7.60;;;5.45;;
81154;SDS011;70631;50.436;7.826;2023-06-24T01:40:35;6.80;;;5.72;;
81154;SDS011;70631;50.436;7.826;2023-06-24T01:43:05;7.32;;;6.18;;
81154;SDS011;70631;50.436;7.826;2023-06-24T01:45:35;8.20;;;5.40;;
81154;SDS011;70631;50.436;7.826;2023-06-24T01:48:07;6.63;;;5.32;;
81154;SDS011;70631;50.436;7.826;2023-06-24T01:50:38;7.53;;;6.43;;
81154;SDS011;70631;50.436;7.826;2023-06-24T01:53:07;8.98;;;5.95;;
81154;SDS011;70631;50.436;7.826;2023-06-24T01:55:33;7.35;;;5.95;;
81154;SDS011;70631;50.436;7.826;2023-06-24T01:58:01;8.10;;;6.15;;
81154;SDS011;70631;50.436;7.826;2023-06-24T02:00:29;9.75;;;6.18;;
81154;SDS011;70631;50.436;7.826;2023-06-24T02:02:56;6.75;;;5.78;;
81154;SDS011;70631;50.436;7.826;2023-06-24T02:05:22;6.65;;;4.55;;
81154;SDS011;70631;50.436;7.826;2023-06-24T02:07:50;7.00;;;5.55;;
81154;SDS011;70631;50.436;7.826;2023-06-24T02:10:18;7.13;;;5.90;;
81154;SDS011;70631;50.436;7.826;2023-06-24T02:12:45;6.70;;;5.25;;
81154;SDS011;70631;50.436;7.826;2023-06-24T02:15:12;8.02;;;4.97;;
81154;SDS011;70631;50.436;7.826;2023-06-24T02:17:38;6.55;;;5.38;;
81154;SDS011;70631;50.436;7.826;2023-06-24T02:20:05;6.85;;;5.30;;
81154;SDS011;70631;50.436;7.826;2023-06-24T02:22:35;6.20;;;4.50;;
81154;SDS011;70631;50.436;7.826;2023-06-24T02:25:03;7.00;;;4.88;;
81154;SDS011;70631;50.436;7.826;2023-06-24T02:27:30;6.90;;;5.28;;
81154;SDS011;70631;50.436;7.826;2023-06-24T02:29:57;8.35;;;5.22;;
81154;SDS011;70631;50.436;7.826;2023-06-24T02:32:24;7.82;;;5.75;;
81154;SDS011;70631;50.436;7.826;2023-06-24T02:34:49;9.00;;;6.20;;
81154;SDS011;70631;50.436;7.826;2023-06-24T02:37:15;6.63;;;4.68;;
81154;SDS011;70631;50.436;7.826;2023-06-24T02:39:40;6.13;;;4.77;;
81154;SDS011;70631;50.436;7.826;2023-06-24T02:42:09;10.27;;;5.57;;
81154;SDS011;70631;50.436;7.826;2023-06-24T02:44:36;7.10;;;5.32;;
81154;SDS011;70631;50.436;7.826;2023-06-24T02:47:01;8.33;;;5.50;;
81154;SDS011;70631;50.436;7.826;2023-06-24T02:49:27;6.07;;;5.30;;
81154;SDS011;70631;50.436;7.826;2023-06-24T02:51:53;5.45;;;4.88;;
81154;SDS011;70631;50.436;7.826;2023-06-24T02:54:18;6.78;;;5.60;;
81154;SDS011;70631;50.436;7.826;2023-06-24T02:56:44;8.47;;;5.50;;
81154;SDS011;70631;50.436;7.826;2023-06-24T02:59:09;5.85;;;4.53;;
81154;SDS011;70631;50.436;7.826;2023-06-24T03:01:35;6.82;;;5.07;;
81154;SDS011;70631;50.436;7.826;2023-06-24T03:04:04;6.30;;;4.68;;
81154;SDS011;70631;50.436;7.826;2023-06-24T03:06:29;6.43;;;5.07;;
81154;SDS011;70631;50.436;7.826;2023-06-24T03:08:56;7.05;;;5.72;;
81154;SDS011;70631;50.436;7.826;2023-06-24T03:11:22;10.48;;;5.97;;
81154;SDS011;70631;50.436;7.826;2023-06-24T03:13:48;8.10;;;6.15;;
81154;SDS011;70631;50.436;7.826;2023-06-24T03:16:13;5.83;;;5.23;;
81154;SDS011;70631;50.436;7.826;2023-06-24T03:18:40;8.88;;;5.60;;
81154;SDS011;70631;50.436;7.826;2023-06-24T03:21:08;6.75;;;5.95;;
81154;SDS011;70631;50.436;7.826;2023-06-24T03:23:34;7.13;;;5.93;;
81154;SDS011;70631;50.436;7.826;2023-06-24T03:26:00;6.75;;;5.53;;
81154;SDS011;70631;50.436;7.826;2023-06-24T03:28:25;10.80;;;5.85;;
81154;SDS011;70631;50.436;7.826;2023-06-24T03:30:51;9.13;;;5.93;;
81154;SDS011;70631;50.436;7.826;2023-06-24T03:33:16;6.38;;;5.53;;
81154;SDS011;70631;50.436;7.826;2023-06-24T03:35:43;8.40;;;5.90;;
81154;SDS011;70631;50.436;7.826;2023-06-24T03:38:08;7.38;;;4.90;;
81154;SDS011;70631;50.436;7.826;2023-06-24T03:40:33;7.45;;;5.38;;
81154;SDS011;70631;50.436;7.826;2023-06-24T03:42:59;8.13;;;5.15;;
81154;SDS011;70631;50.436;7.826;2023-06-24T03:45:24;7.18;;;5.13;;
81154;SDS011;70631;50.436;7.826;2023-06-24T03:47:49;7.13;;;5.40;;
81154;SDS011;70631;50.436;7.826;2023-06-24T03:50:15;7.00;;;4.93;;
81154;SDS011;70631;50.436;7.826;2023-06-24T03:52:40;5.27;;;4.77;;
81154;SDS011;70631;50.436;7.826;2023-06-24T03:55:05;5.77;;;5.10;;
81154;SDS011;70631;50.436;7.826;2023-06-24T03:57:31;8.77;;;6.15;;
81154;SDS011;70631;50.436;7.826;2023-06-24T03:59:56;8.60;;;5.63;;
81154;SDS011;70631;50.436;7.826;2023-06-24T04:02:21;8.43;;;5.67;;
81154;SDS011;70631;50.436;7.826;2023-06-24T04:04:47;7.95;;;5.70;;
81154;SDS011;70631;50.436;7.826;2023-06-24T04:07:16;7.15;;;4.90;;
81154;SDS011;70631;50.436;7.826;2023-06-24T04:09:51;6.35;;;4.57;;
81154;SDS011;70631;50.436;7.826;2023-06-24T04:12:19;6.28;;;4.90;;
81154;SDS011;70631;50.436;7.826;2023-06-24T04:14:44;8.83;;;5.97;;
81154;SDS011;70631;50.436;7.826;2023-06-24T04:17:09;5.97;;;4.97;;
81154;SDS011;70631;50.436;7.826;2023-06-24T04:19:35;5.80;;;5.20;;
81154;SDS011;70631;50.436;7.826;2023-06-24T04:22:00;5.63;;;5.13;;
81154;SDS011;70631;50.436;7.826;2023-06-24T04:24:25;9.90;;;5.53;;
81154;SDS011;70631;50.436;7.826;2023-06-24T04:26:50;8.13;;;4.57;;
81154;SDS011;70631;50.436;7.826;2023-06-24T04:29:16;8.43;;;5.33;;
81154;SDS011;70631;50.436;7.826;2023-06-24T04:31:41;7.22;;;5.07;;
81154;SDS011;70631;50.436;7.826;2023-06-24T04:34:06;6.97;;;5.93;;
81154;SDS011;70631;50.436;7.826;2023-06-24T04:36:31;5.83;;;4.73;;
81154;SDS011;70631;50.436;7.826;2023-06-24T04:38:57;7.77;;;5.00;;
81154;SDS011;70631;50.436;7.826;2023-06-24T04:41:22;8.80;;;5.40;;
81154;SDS011;70631;50.436;7.826;2023-06-24T04:43:47;5.97;;;5.10;;
81154;SDS011;70631;50.436;7.826;2023-06-24T04:46:13;6.07;;;5.18;;
81154;SDS011;70631;50.436;7.826;2023-06-24T04:48:38;7.77;;;4.60;;
81154;SDS011;70631;50.436;7.826;2023-06-24T04:51:03;6.30;;;5.03;;
81154;SDS011;70631;50.436;7.826;2023-06-24T04:53:29;5.63;;;4.97;;
81154;SDS011;70631;50.436;7.826;2023-06-24T04:55:54;8.52;;;4.90;;
81154;SDS011;70631;50.436;7.826;2023-06-24T04:58:19;7.13;;;5.83;;
81154;SDS011;70631;50.436;7.826;2023-06-24T05:00:45;7.73;;;5.20;;
81154;SDS011;70631;50.436;7.826;2023-06-24T05:03:10;6.07;;;5.07;;
81154;SDS011;70631;50.436;7.826;2023-06-24T05:05:35;9.90;;;5.57;;
81154;SDS011;70631;50.436;7.826;2023-06-24T05:08:00;7.10;;;5.20;;
81154;SDS011;70631;50.436;7.826;2023-06-24T05:10:26;10.10;;;6.17;;
81154;SDS011;70631;50.436;7.826;2023-06-24T05:12:51;8.13;;;5.53;;
81154;SDS011;70631;50.436;7.826;2023-06-24T05:15:16;6.97;;;5.13;;
81154;SDS011;70631;50.436;7.826;2023-06-24T05:17:42;8.18;;;4.65;;
81154;SDS011;70631;50.436;7.826;2023-06-24T05:20:07;7.07;;;5.15;;
81154;SDS011;70631;50.436;7.826;2023-06-24T05:22:33;7.13;;;5.47;;
81154;SDS011;70631;50.436;7.826;2023-06-24T05:24:59;6.57;;;5.53;;
81154;SDS011;70631;50.436;7.826;2023-06-24T05:27:24;6.07;;;5.23;;
81154;SDS011;70631;50.436;7.826;2023-06-24T05:29:50;6.93;;;5.60;;
81154;SDS011;70631;50.436;7.826;2023-06-24T05:32:15;8.20;;;5.70;;
81154;SDS011;70631;50.436;7.826;2023-06-24T05:34:42;7.43;;;6.07;;
81154;SDS011;70631;50.436;7.826;2023-06-24T05:37:08;6.22;;;5.28;;
81154;SDS011;70631;50.436;7.826;2023-06-24T05:39:33;8.10;;;5.80;;
81154;SDS011;70631;50.436;7.826;2023-06-24T05:41:58;6.77;;;5.37;;
81154;SDS011;70631;50.436;7.826;2023-06-24T05:44:23;7.37;;;5.80;;
81154;SDS011;70631;50.436;7.826;2023-06-24T05:46:49;7.33;;;6.57;;
81154;SDS011;70631;50.436;7.826;2023-06-24T05:49:14;6.97;;;6.13;;
81154;SDS011;70631;50.436;7.826;2023-06-24T05:51:40;7.90;;;6.30;;
81154;SDS011;70631;50.436;7.826;2023-06-24T05:54:06;7.28;;;6.68;;
81154;SDS011;70631;50.436;7.826;2023-06-24T05:56:32;7.65;;;6.82;;
81154;SDS011;70631;50.436;7.826;2023-06-24T05:58:58;7.97;;;6.50;;
81154;SDS011;70631;50.436;7.826;2023-06-24T06:01:24;6.82;;;5.72;;
81154;SDS011;70631;50.436;7.826;2023-06-24T06:03:49;7.00;;;6.30;;
81154;SDS011;70631;50.436;7.826;2023-06-24T06:06:14;6.93;;;6.20;;
81154;SDS011;70631;50.436;7.826;2023-06-24T06:08:40;7.07;;;6.23;;
81154;SDS011;70631;50.436;7.826;2023-06-24T06:11:05;7.60;;;6.38;;
81154;SDS011;70631;50.436;7.826;2023-06-24T06:13:30;6.17;;;5.57;;
81154;SDS011;70631;50.436;7.826;2023-06-24T06:15:56;8.68;;;5.93;;
81154;SDS011;70631;50.436;7.826;2023-06-24T06:18:22;6.53;;;5.35;;
81154;SDS011;70631;50.436;7.826;2023-06-24T06:20:47;7.10;;;5.50;;
81154;SDS011;70631;50.436;7.826;2023-06-24T06:23:13;7.20;;;5.30;;
81154;SDS011;70631;50.436;7.826;2023-06-24T06:25:38;6.28;;;5.68;;
81154;SDS011;70631;50.436;7.826;2023-06-24T06:28:04;5.77;;;5.17;;
81154;SDS011;70631;50.436;7.826;2023-06-24T06:30:30;5.68;;;5.07;;
81154;SDS011;70631;50.436;7.826;2023-06-24T06:32:55;6.15;;;5.50;;
81154;SDS011;70631;50.436;7.826;2023-06-24T06:35:20;6.90;;;5.37;;
81154;SDS011;70631;50.436;7.826;2023-06-24T06:37:46;6.73;;;5.27;;
81154;SDS011;70631;50.436;7.826;2023-06-24T06:40:17;5.47;;;4.97;;
81154;SDS011;70631;50.436;7.826;2023-06-24T06:42:42;6.47;;;5.20;;
81154;SDS011;70631;50.436;7.826;2023-06-24T06:45:07;5.33;;;4.77;;
81154;SDS011;70631;50.436;7.826;2023-06-24T06:47:33;7.78;;;5.25;;
81154;SDS011;70631;50.436;7.826;2023-06-24T06:49:58;7.50;;;5.43;;
81154;SDS011;70631;50.436;7.826;2023-06-24T06:52:23;8.07;;;5.83;;
81154;SDS011;70631;50.436;7.826;2023-06-24T06:54:48;5.67;;;5.17;;
81154;SDS011;70631;50.436;7.826;2023-06-24T06:57:14;6.40;;;5.70;;
81154;SDS011;70631;50.436;7.826;2023-06-24T06:59:39;5.47;;;4.97;;
81154;SDS011;70631;50.436;7.826;2023-06-24T07:02:04;5.53;;;5.00;;
81154;SDS011;70631;50.436;7.826;2023-06-24T07:04:30;5.40;;;4.90;;
81154;SDS011;70631;50.436;7.826;2023-06-24T07:06:56;6.20;;;5.45;;
81154;SDS011;70631;50.436;7.826;2023-06-24T07:09:21;6.17;;;4.93;;
81154;SDS011;70631;50.436;7.826;2023-06-24T07:11:46;5.83;;;5.27;;
81154;SDS011;70631;50.436;7.826;2023-06-24T07:14:12;6.37;;;5.23;;
81154;SDS011;70631;50.436;7.826;2023-06-24T07:16:37;6.23;;;5.63;;
81154;SDS011;70631;50.436;7.826;2023-06-24T07:19:03;5.45;;;5.00;;
81154;SDS011;70631;50.436;7.826;2023-06-24T07:21:28;5.93;;;4.87;;
81154;SDS011;70631;50.436;7.826;2023-06-24T07:23:53;5.83;;;5.37;;
81154;SDS011;70631;50.436;7.826;2023-06-24T07:26:19;5.53;;;4.65;;
81154;SDS011;70631;50.436;7.826;2023-06-24T07:28:44;8.52;;;4.70;;
81154;SDS011;70631;50.436;7.826;2023-06-24T07:31:09;6.70;;;5.10;;
81154;SDS011;70631;50.436;7.826;2023-06-24T07:33:34;5.03;;;4.53;;
81154;SDS011;70631;50.436;7.826;2023-06-24T07:36:01;5.50;;;4.68;;
81154;SDS011;70631;50.436;7.826;2023-06-24T07:38:28;4.87;;;4.47;;
81154;SDS011;70631;50.436;7.826;2023-06-24T07:40:54;4.93;;;4.53;;
81154;SDS011;70631;50.436;7.826;2023-06-24T07:43:19;6.30;;;4.43;;
81154;SDS011;70631;50.436;7.826;2023-06-24T07:45:44;5.07;;;4.43;;
81154;SDS011;70631;50.436;7.826;2023-06-24T07:48:09;5.00;;;4.20;;
81154;SDS011;70631;50.436;7.826;2023-06-24T07:50:35;5.60;;;4.47;;
81154;SDS011;70631;50.436;7.826;2023-06-24T07:53:01;4.10;;;3.80;;
81154;SDS011;70631;50.436;7.826;2023-06-24T07:55:27;5.05;;;4.65;;
81154;SDS011;70631;50.436;7.826;2023-06-24T07:57:52;5.00;;;4.35;;
81154;SDS011;70631;50.436;7.826;2023-06-24T08:00:18;4.60;;;4.10;;
81154;SDS011;70631;50.436;7.826;2023-06-24T08:02:43;4.50;;;4.10;;
81154;SDS011;70631;50.436;7.826;2023-06-24T08:05:08;4.17;;;3.60;;
81154;SDS011;70631;50.436;7.826;2023-06-24T08:07:34;4.10;;;3.67;;
81154;SDS011;70631;50.436;7.826;2023-06-24T08:10:00;3.90;;;3.60;;
81154;SDS011;70631;50.436;7.826;2023-06-24T08:12:26;4.38;;;3.97;;
81154;SDS011;70631;50.436;7.826;2023-06-24T08:14:51;3.92;;;3.63;;
81154;SDS011;70631;50.436;7.826;2023-06-24T08:17:16;4.30;;;3.90;;
81154;SDS011;70631;50.436;7.826;2023-06-24T08:19:42;7.13;;;3.63;;
81154;SDS011;70631;50.436;7.826;2023-06-24T08:22:07;4.13;;;3.73;;
81154;SDS011;70631;50.436;7.826;2023-06-24T08:24:33;3.63;;;3.33;;
81154;SDS011;70631;50.436;7.826;2023-06-24T08:26:58;4.47;;;3.67;;
81154;SDS011;70631;50.436;7.826;2023-06-24T08:32:27;3.97;;;3.40;;
81154;SDS011;70631;50.436;7.826;2023-06-24T08:35:11;5.30;;;4.25;;
81154;SDS011;70631;50.436;7.826;2023-06-24T08:37:36;5.30;;;4.83;;
81154;SDS011;70631;50.436;7.826;2023-06-24T08:40:04;5.32;;;4.82;;
81154;SDS011;70631;50.436;7.826;2023-06-24T08:42:30;7.30;;;4.90;;
81154;SDS011;70631;50.436;7.826;2023-06-24T08:44:55;5.20;;;4.28;;
81154;SDS011;70631;50.436;7.826;2023-06-24T08:50:44;5.47;;;4.97;;
81154;SDS011;70631;50.436;7.826;2023-06-24T08:53:15;6.95;;;5.85;;
81154;SDS011;70631;50.436;7.826;2023-06-24T08:55:44;7.03;;;5.30;;
81154;SDS011;70631;50.436;7.826;2023-06-24T08:58:11;5.82;;;5.22;;
81154;SDS011;70631;50.436;7.826;2023-06-24T09:00:36;6.25;;;5.30;;
81154;SDS011;70631;50.436;7.826;2023-06-24T09:03:01;6.00;;;5.40;;
81154;SDS011;70631;50.436;7.826;2023-06-24T09:05:27;7.00;;;5.20;;
81154;SDS011;70631;50.436;7.826;2023-06-24T09:07:53;5.78;;;5.28;;
81154;SDS011;70631;50.436;7.826;2023-06-24T09:10:34;6.53;;;4.90;;
81154;SDS011;70631;50.436;7.826;2023-06-24T09:13:01;6.57;;;5.53;;
81154;SDS011;70631;50.436;7.826;2023-06-24T09:15:31;5.18;;;4.50;;
81154;SDS011;70631;50.436;7.826;2023-06-24T09:17:57;5.70;;;5.10;;
81154;SDS011;70631;50.436;7.826;2023-06-24T09:20:25;6.05;;;4.43;;
81154;SDS011;70631;50.436;7.826;2023-06-24T09:23:01;5.55;;;4.53;;
81154;SDS011;70631;50.436;7.826;2023-06-24T09:25:28;8.88;;;4.95;;
81154;SDS011;70631;50.436;7.826;2023-06-24T09:27:54;4.97;;;4.38;;
81154;SDS011;70631;50.436;7.826;2023-06-24T09:30:21;4.70;;;4.22;;
81154;SDS011;70631;50.436;7.826;2023-06-24T09:32:48;5.72;;;4.00;;
81154;SDS011;70631;50.436;7.826;2023-06-24T09:35:14;4.85;;;4.05;;
81154;SDS011;70631;50.436;7.826;2023-06-24T09:37:48;4.90;;;4.47;;
81154;SDS011;70631;50.436;7.826;2023-06-24T09:40:21;5.10;;;4.60;;
81154;SDS011;70631;50.436;7.826;2023-06-24T09:42:51;5.53;;;4.15;;
81154;SDS011;70631;50.436;7.826;2023-06-24T09:45:21;5.30;;;4.80;;
81154;SDS011;70631;50.436;7.826;2023-06-24T09:47:48;5.63;;;4.57;;
81154;SDS011;70631;50.436;7.826;2023-06-24T09:50:13;4.60;;;3.97;;
81154;SDS011;70631;50.436;7.826;2023-06-24T09:52:39;5.07;;;4.27;;
81154;SDS011;70631;50.436;7.826;2023-06-24T09:55:04;4.43;;;3.90;;
81154;SDS011;70631;50.436;7.826;2023-06-24T09:57:32;4.65;;;4.25;;
81154;SDS011;70631;50.436;7.826;2023-06-24T10:00:00;5.15;;;4.45;;
81154;SDS011;70631;50.436;7.826;2023-06-24T10:02:28;5.80;;;4.20;;
81154;SDS011;70631;50.436;7.826;2023-06-24T10:04:55;4.90;;;4.50;;
81154;SDS011;70631;50.436;7.826;2023-06-24T10:07:21;5.80;;;4.30;;
81154;SDS011;70631;50.436;7.826;2023-06-24T10:09:47;4.22;;;3.83;;
81154;SDS011;70631;50.436;7.826;2023-06-24T10:12:13;4.90;;;4.45;;
81154;SDS011;70631;50.436;7.826;2023-06-24T10:14:39;4.32;;;3.63;;
81154;SDS011;70631;50.436;7.826;2023-06-24T10:17:04;4.85;;;4.40;;
81154;SDS011;70631;50.436;7.826;2023-06-24T10:19:30;4.13;;;3.72;;
81154;SDS011;70631;50.436;7.826;2023-06-24T10:22:08;4.65;;;4.25;;
81154;SDS011;70631;50.436;7.826;2023-06-24T10:24:38;4.07;;;3.60;;
81154;SDS011;70631;50.436;7.826;2023-06-24T10:27:07;4.93;;;3.70;;
81154;SDS011;70631;50.436;7.826;2023-06-24T10:29:34;4.63;;;4.10;;
81154;SDS011;70631;50.436;7.826;2023-06-24T10:32:07;7.43;;;4.32;;
81154;SDS011;70631;50.436;7.826;2023-06-24T10:44:48;4.55;;;4.15;;
81154;SDS011;70631;50.436;7.826;2023-06-24T10:47:14;4.85;;;4.45;;
81154;SDS011;70631;50.436;7.826;2023-06-24T10:49:39;4.95;;;3.92;;
81154;SDS011;70631;50.436;7.826;2023-06-24T10:52:07;5.50;;;3.70;;
81154;SDS011;70631;50.436;7.826;2023-06-24T10:54:33;5.80;;;3.97;;
81154;SDS011;70631;50.436;7.826;2023-06-24T10:57:00;4.45;;;4.05;;
81154;SDS011;70631;50.436;7.826;2023-06-24T10:59:25;4.10;;;3.70;;
81154;SDS011;70631;50.436;7.826;2023-06-24T11:01:53;4.30;;;3.90;;
81154;SDS011;70631;50.436;7.826;2023-06-24T11:04:19;4.28;;;3.78;;
81154;SDS011;70631;50.436;7.826;2023-06-24T11:06:57;4.50;;;4.07;;
81154;SDS011;70631;50.436;7.826;2023-06-24T11:09:23;4.22;;;3.83;;
81154;SDS011;70631;50.436;7.826;2023-06-24T11:11:49;4.23;;;3.83;;
81154;SDS011;70631;50.436;7.826;2023-06-24T11:14:15;4.90;;;4.20;;
81154;SDS011;70631;50.436;7.826;2023-06-24T11:16:40;5.70;;;4.38;;
81154;SDS011;70631;50.436;7.826;2023-06-24T11:19:06;4.75;;;3.80;;
81154;SDS011;70631;50.436;7.826;2023-06-24T11:21:31;4.37;;;3.97;;
81154;SDS011;70631;50.436;7.826;2023-06-24T11:24:00;5.07;;;4.30;;
81154;SDS011;70631;50.436;7.826;2023-06-24T11:26:26;4.28;;;3.63;;
81154;SDS011;70631;50.436;7.826;2023-06-24T11:28:52;4.70;;;4.15;;
81154;SDS011;70631;50.436;7.826;2023-06-24T11:31:17;4.67;;;4.27;;
81154;SDS011;70631;50.436;7.826;2023-06-24T11:33:42;4.87;;;4.03;;
81154;SDS011;70631;50.436;7.826;2023-06-24T11:36:10;6.10;;;3.97;;
81154;SDS011;70631;50.436;7.826;2023-06-24T11:38:36;4.82;;;4.40;;
81154;SDS011;70631;50.436;7.826;2023-06-24T11:41:01;5.15;;;4.07;;
81154;SDS011;70631;50.436;7.826;2023-06-24T11:43:27;4.03;;;3.60;;
81154;SDS011;70631;50.436;7.826;2023-06-24T11:45:52;3.72;;;3.38;;
81154;SDS011;70631;50.436;7.826;2023-06-24T11:48:19;4.87;;;3.90;;
81154;SDS011;70631;50.436;7.826;2023-06-24T11:50:52;5.43;;;4.63;;
81154;SDS011;70631;50.436;7.826;2023-06-24T11:53:22;4.22;;;3.83;;
81154;SDS011;70631;50.436;7.826;2023-06-24T11:56:06;5.70;;;4.03;;
81154;SDS011;70631;50.436;7.826;2023-06-24T11:58:34;4.30;;;3.90;;
81154;SDS011;70631;50.436;7.826;2023-06-24T12:01:00;4.47;;;4.05;;
81154;SDS011;70631;50.436;7.826;2023-06-24T12:03:27;4.53;;;4.13;;
81154;SDS011;70631;50.436;7.826;2023-06-24T12:05:53;3.90;;;3.60;;
81154;SDS011;70631;50.436;7.826;2023-06-24T12:08:19;5.00;;;4.03;;
81154;SDS011;70631;50.436;7.826;2023-06-24T12:10:45;4.40;;;3.40;;
81154;SDS011;70631;50.436;7.826;2023-06-24T12:13:11;4.35;;;3.85;;
81154;SDS011;70631;50.436;7.826;2023-06-24T12:15:36;4.65;;;3.40;;
81154;SDS011;70631;50.436;7.826;2023-06-24T12:18:02;4.55;;;3.85;;
81154;SDS011;70631;50.436;7.826;2023-06-24T12:20:28;5.05;;;3.53;;
81154;SDS011;70631;50.436;7.826;2023-06-24T12:22:55;3.72;;;3.42;;
81154;SDS011;70631;50.436;7.826;2023-06-24T12:25:20;4.47;;;4.07;;
81154;SDS011;70631;50.436;7.826;2023-06-24T12:27:46;6.90;;;3.92;;
81154;SDS011;70631;50.436;7.826;2023-06-24T12:30:12;5.18;;;3.92;;
81154;SDS011;70631;50.436;7.826;2023-06-24T12:32:38;3.90;;;3.60;;
81154;SDS011;70631;50.436;7.826;2023-06-24T12:35:03;5.95;;;3.30;;
81154;SDS011;70631;50.436;7.826;2023-06-24T12:37:32;4.93;;;3.70;;
81154;SDS011;70631;50.436;7.826;2023-06-24T12:39:58;3.78;;;3.38;;
81154;SDS011;70631;50.436;7.826;2023-06-24T12:42:24;4.68;;;3.00;;
81154;SDS011;70631;50.436;7.826;2023-06-24T12:44:50;4.43;;;3.50;;
81154;SDS011;70631;50.436;7.826;2023-06-24T12:47:16;5.13;;;3.50;;
81154;SDS011;70631;50.436;7.826;2023-06-24T12:49:41;5.17;;;3.20;;
81154;SDS011;70631;50.436;7.826;2023-06-24T12:52:06;4.20;;;3.53;;
81154;SDS011;70631;50.436;7.826;2023-06-24T12:54:31;3.37;;;2.93;;
81154;SDS011;70631;50.436;7.826;2023-06-24T12:56:57;3.87;;;3.57;;
81154;SDS011;70631;50.436;7.826;2023-06-24T12:59:22;4.93;;;3.70;;
81154;SDS011;70631;50.436;7.826;2023-06-24T13:01:48;4.00;;;3.60;;
81154;SDS011;70631;50.436;7.826;2023-06-24T13:04:13;5.60;;;3.87;;
81154;SDS011;70631;50.436;7.826;2023-06-24T13:06:38;4.33;;;3.20;;
81154;SDS011;70631;50.436;7.826;2023-06-24T13:09:03;3.63;;;3.33;;
81154;SDS011;70631;50.436;7.826;2023-06-24T13:11:29;4.93;;;4.00;;
81154;SDS011;70631;50.436;7.826;2023-06-24T13:13:54;3.93;;;3.63;;
81154;SDS011;70631;50.436;7.826;2023-06-24T13:16:20;6.90;;;3.83;;
81154;SDS011;70631;50.436;7.826;2023-06-24T13:18:45;3.83;;;3.43;;
81154;SDS011;70631;50.436;7.826;2023-06-24T13:21:10;5.72;;;3.75;;
81154;SDS011;70631;50.436;7.826;2023-06-24T13:23:36;3.53;;;3.23;;
81154;SDS011;70631;50.436;7.826;2023-06-24T13:26:03;4.85;;;3.65;;
81154;SDS011;70631;50.436;7.826;2023-06-24T13:28:28;5.70;;;3.85;;
81154;SDS011;70631;50.436;7.826;2023-06-24T13:30:54;3.67;;;3.33;;
81154;SDS011;70631;50.436;7.826;2023-06-24T13:33:20;3.85;;;3.20;;
81154;SDS011;70631;50.436;7.826;2023-06-24T13:35:45;3.77;;;3.30;;
81154;SDS011;70631;50.436;7.826;2023-06-24T13:38:11;3.57;;;3.23;;
81154;SDS011;70631;50.436;7.826;2023-06-24T13:40:37;4.90;;;3.55;;
81154;SDS011;70631;50.436;7.826;2023-06-24T13:43:02;4.32;;;3.75;;
81154;SDS011;70631;50.436;7.826;2023-06-24T13:45:28;3.90;;;3.50;;
81154;SDS011;70631;50.436;7.826;2023-06-24T13:47:53;3.97;;;3.40;;
81154;SDS011;70631;50.436;7.826;2023-06-24T13:50:20;5.95;;;3.88;;
81154;SDS011;70631;50.436;7.826;2023-06-24T13:52:45;4.60;;;3.30;;
81154;SDS011;70631;50.436;7.826;2023-06-24T13:55:10;4.78;;;3.65;;
81154;SDS011;70631;50.436;7.826;2023-06-24T13:57:36;5.37;;;3.47;;
81154;SDS011;70631;50.436;7.826;2023-06-24T14:00:01;5.87;;;3.90;;
81154;SDS011;70631;50.436;7.826;2023-06-24T14:02:27;4.20;;;3.70;;
81154;SDS011;70631;50.436;7.826;2023-06-24T14:04:52;3.90;;;3.60;;
81154;SDS011;70631;50.436;7.826;2023-06-24T14:07:17;3.87;;;3.47;;
81154;SDS011;70631;50.436;7.826;2023-06-24T14:09:43;4.10;;;3.70;;
81154;SDS011;70631;50.436;7.826;2023-06-24T14:12:08;5.65;;;3.85;;
81154;SDS011;70631;50.436;7.826;2023-06-24T14:14:35;3.90;;;3.55;;
81154;SDS011;70631;50.436;7.826;2023-06-24T14:17:02;4.65;;;3.80;;
81154;SDS011;70631;50.436;7.826;2023-06-24T14:19:27;4.75;;;3.72;;
81154;SDS011;70631;50.436;7.826;2023-06-24T14:21:53;5.63;;;3.22;;
81154;SDS011;70631;50.436;7.826;2023-06-24T14:24:18;4.07;;;3.67;;
81154;SDS011;70631;50.436;7.826;2023-06-24T14:26:44;4.35;;;3.95;;
81154;SDS011;70631;50.436;7.826;2023-06-24T14:29:09;4.60;;;3.55;;
81154;SDS011;70631;50.436;7.826;2023-06-24T14:31:34;4.17;;;3.77;;
81154;SDS011;70631;50.436;7.826;2023-06-24T14:34:00;4.60;;;3.30;;
81154;SDS011;70631;50.436;7.826;2023-06-24T14:36:25;5.77;;;3.37;;
81154;SDS011;70631;50.436;7.826;2023-06-24T14:38:50;6.57;;;3.43;;
81154;SDS011;70631;50.436;7.826;2023-06-24T14:41:16;4.37;;;3.80;;
81154;SDS011;70631;50.436;7.826;2023-06-24T14:43:41;4.60;;;3.90;;
81154;SDS011;70631;50.436;7.826;2023-06-24T14:46:06;4.00;;;3.67;;
81154;SDS011;70631;50.436;7.826;2023-06-24T14:48:31;4.97;;;3.53;;
81154;SDS011;70631;50.436;7.826;2023-06-24T14:50:57;6.47;;;3.63;;
81154;SDS011;70631;50.436;7.826;2023-06-24T14:53:22;4.37;;;3.30;;
81154;SDS011;70631;50.436;7.826;2023-06-24T14:55:47;3.80;;;3.47;;
81154;SDS011;70631;50.436;7.826;2023-06-24T14:58:12;4.93;;;3.20;;
81154;SDS011;70631;50.436;7.826;2023-06-24T15:00:38;3.77;;;3.33;;
81154;SDS011;70631;50.436;7.826;2023-06-24T15:03:03;4.33;;;3.90;;